createdAt,value
2023-10-19T00:00:20.526Z,41.20
2023-10-19T00:00:45.667Z,45.00
2023-10-19T00:01:19.326Z,40.35
2023-10-19T00:01:35.266Z,41.83
2023-10-19T00:01:48.226Z,43.58
2023-10-19T00:02:02.631Z,44.58
2023-10-19T00:02:20.529Z,49.17
2023-10-19T00:02:33.449Z,51.60
2023-10-19T00:02:47.581Z,50.08
2023-10-19T00:03:03.714Z,49.92
2023-10-19T00:03:17.216Z,45.80
2023-10-19T00:03:29.872Z,37.78
2023-10-19T00:03:42.928Z,31.58
2023-10-19T00:03:57.325Z,26.85
2023-10-19T00:04:11.459Z,25.38
2023-10-19T00:04:25.612Z,24.52
2023-10-19T00:04:38.414Z,24.13
2023-10-19T00:04:51.142Z,23.50
2023-10-19T00:05:05.437Z,21.98
2023-10-19T00:05:18.522Z,19.88
2023-10-19T00:05:33.301Z,20.85
2023-10-19T00:05:46.396Z,21.08
2023-10-19T00:05:59.075Z,21.85
2023-10-19T00:06:13.005Z,21.50
2023-10-19T00:06:25.592Z,20.60
2023-10-19T00:06:41.249Z,21.33
2023-10-19T00:06:54.344Z,21.13
2023-10-19T00:07:09.015Z,19.50
2023-10-19T00:07:21.644Z,19.85
2023-10-19T00:07:34.471Z,20.63
2023-10-19T00:07:47.582Z,20.33
2023-10-19T00:08:06.453Z,19.58
2023-10-19T00:08:22.170Z,21.30
2023-10-19T00:08:41.956Z,22.85
2023-10-19T00:08:54.604Z,23.77
2023-10-19T00:09:12.491Z,25.73
2023-10-19T00:09:26.554Z,27.58
2023-10-19T00:09:39.892Z,28.17
2023-10-19T00:09:54.890Z,30.30
2023-10-19T00:10:08.330Z,30.05
2023-10-19T00:10:22.317Z,26.77
2023-10-19T00:10:36.397Z,22.67
2023-10-19T00:10:56.687Z,19.75
2023-10-19T00:11:11.733Z,20.15
2023-10-19T00:11:25.625Z,20.10
2023-10-19T00:11:41.756Z,20.30
2023-10-19T00:11:54.579Z,18.90
2023-10-19T00:12:07.766Z,18.73
2023-10-19T00:12:23.367Z,19.02
2023-10-19T00:12:36.372Z,18.70
2023-10-19T00:12:58.308Z,18.08
2023-10-19T00:13:13.130Z,16.77
2023-10-19T00:13:25.838Z,17.95
2023-10-19T00:13:40.229Z,18.77
2023-10-19T00:13:55.763Z,18.30
2023-10-19T00:14:16.849Z,18.27
2023-10-19T00:14:29.564Z,18.98
2023-10-19T00:14:42.632Z,18.23
2023-10-19T00:14:56.200Z,16.92
2023-10-19T00:15:11.207Z,15.73
2023-10-19T00:15:25.235Z,16.95
2023-10-19T00:15:41.077Z,16.92
2023-10-19T00:15:54.767Z,16.73
2023-10-19T00:16:18.267Z,17.92
2023-10-19T00:16:31.784Z,17.35
2023-10-19T00:16:45.947Z,15.43
2023-10-19T00:17:01.765Z,16.25
2023-10-19T00:17:16.167Z,16.63
2023-10-19T00:17:29.941Z,16.35
2023-10-19T00:17:45.949Z,15.90
2023-10-19T00:18:00.594Z,16.55
2023-10-19T00:18:24.897Z,17.00
2023-10-19T00:18:37.747Z,16.10
2023-10-19T00:18:51.276Z,16.92
2023-10-19T00:19:04.816Z,16.58
2023-10-19T00:19:20.772Z,16.02
2023-10-19T00:19:40.823Z,16.60
2023-10-19T00:19:59.380Z,17.42
2023-10-19T00:20:37.985Z,18.67
2023-10-19T00:20:53.566Z,20.88
2023-10-19T00:21:20.171Z,23.17
2023-10-19T00:21:49.471Z,30.63
2023-10-19T00:22:09.593Z,30.58
2023-10-19T00:22:22.615Z,27.45
2023-10-19T00:22:37.585Z,27.48
2023-10-19T00:22:50.340Z,25.83
2023-10-19T00:23:06.646Z,27.08
2023-10-19T00:23:23.072Z,28.42
2023-10-19T00:23:36.267Z,25.58
2023-10-19T00:23:50.186Z,23.52
2023-10-19T00:24:06.064Z,23.45
2023-10-19T00:24:20.686Z,24.10
2023-10-19T00:24:33.305Z,24.35
2023-10-19T00:24:47.142Z,23.65
2023-10-19T00:25:00.414Z,22.38
2023-10-19T00:25:14.613Z,21.36
2023-10-19T00:25:27.519Z,20.73
2023-10-19T00:25:42.769Z,20.63
2023-10-19T00:25:56.010Z,21.45
2023-10-19T00:26:09.799Z,20.85
2023-10-19T00:26:26.257Z,19.88
2023-10-19T00:26:41.358Z,21.30
2023-10-19T00:26:56.163Z,23.40
2023-10-19T00:27:16.935Z,23.62
2023-10-19T00:27:30.717Z,22.20
2023-10-19T00:27:43.925Z,21.08
2023-10-19T00:27:56.583Z,21.83
2023-10-19T00:28:09.651Z,22.00
2023-10-19T00:28:23.725Z,21.80
2023-10-19T00:28:36.966Z,21.75
2023-10-19T00:28:54.037Z,21.75
2023-10-19T00:29:19.652Z,22.40
2023-10-19T00:29:33.826Z,22.65
2023-10-19T00:29:50.483Z,22.00
2023-10-19T00:30:08.063Z,22.13
2023-10-19T00:30:24.791Z,24.05
2023-10-19T00:30:37.397Z,26.05
2023-10-19T00:30:52.504Z,29.95
2023-10-19T00:31:09.681Z,30.98
2023-10-19T00:31:22.536Z,28.23
2023-10-19T00:31:37.792Z,28.15
2023-10-19T00:31:50.966Z,24.63
2023-10-19T00:32:04.054Z,24.08
2023-10-19T00:32:19.151Z,26.80
2023-10-19T00:32:33.388Z,29.70
2023-10-19T00:32:47.041Z,34.00
2023-10-19T00:33:04.835Z,39.67
2023-10-19T00:33:18.713Z,39.78
2023-10-19T00:33:33.461Z,36.75
2023-10-19T00:33:46.583Z,37.15
2023-10-19T00:34:02.120Z,37.80
2023-10-19T00:34:15.277Z,36.70
2023-10-19T00:34:30.103Z,37.67
2023-10-19T00:34:51.462Z,38.85
2023-10-19T00:35:09.731Z,38.22
2023-10-19T00:35:28.686Z,40.50
2023-10-19T00:35:48.463Z,36.40
2023-10-19T00:36:08.636Z,36.70
2023-10-19T00:36:21.968Z,32.45
2023-10-19T00:36:34.783Z,32.42
2023-10-19T00:36:47.696Z,34.10
2023-10-19T00:37:08.748Z,31.73
2023-10-19T00:37:27.355Z,30.25
2023-10-19T00:37:43.817Z,34.03
2023-10-19T00:38:18.238Z,33.55
2023-10-19T00:38:42.155Z,32.40
2023-10-19T00:38:56.542Z,34.85
2023-10-19T00:39:16.712Z,35.20
2023-10-19T00:39:34.344Z,39.55
2023-10-19T00:39:54.862Z,40.67
2023-10-19T00:40:17.130Z,40.90
2023-10-19T00:40:36.232Z,39.70
2023-10-19T00:40:54.723Z,38.97
2023-10-19T00:41:08.551Z,42.25
2023-10-19T00:41:28.740Z,40.15
2023-10-19T00:41:42.050Z,39.25
2023-10-19T00:41:58.647Z,40.92
2023-10-19T00:42:11.370Z,37.83
2023-10-19T00:42:27.234Z,36.72
2023-10-19T00:42:46.907Z,38.15
2023-10-19T00:42:59.634Z,42.40
2023-10-19T00:43:14.161Z,48.08
2023-10-19T00:43:33.952Z,48.05
2023-10-19T00:43:47.165Z,44.03
2023-10-19T00:44:04.467Z,44.85
2023-10-19T00:44:23.389Z,46.45
2023-10-19T00:44:43.126Z,50.92
2023-10-19T00:45:02.928Z,52.17
2023-10-19T00:45:16.882Z,54.55
2023-10-19T00:45:29.542Z,55.08
2023-10-19T00:45:42.884Z,55.00
2023-10-19T00:45:55.613Z,53.33
2023-10-19T00:46:11.221Z,52.50
2023-10-19T00:46:26.728Z,55.88
2023-10-19T00:46:44.685Z,57.08
2023-10-19T00:47:04.069Z,54.00
2023-10-19T00:47:20.104Z,55.75
2023-10-19T00:47:41.264Z,53.22
2023-10-19T00:47:54.475Z,50.25
2023-10-19T00:48:09.664Z,46.53
2023-10-19T00:48:27.231Z,37.50
2023-10-19T00:48:41.351Z,35.50
2023-10-19T00:48:57.274Z,35.75
2023-10-19T00:49:13.860Z,32.78
2023-10-19T00:49:27.412Z,31.30
2023-10-19T00:49:40.344Z,33.40
2023-10-19T00:49:56.132Z,33.80
2023-10-19T00:50:17.156Z,34.05
2023-10-19T00:50:32.234Z,31.67
2023-10-19T00:50:48.916Z,28.48
2023-10-19T00:51:10.652Z,24.33
2023-10-19T00:51:31.477Z,25.20
2023-10-19T00:51:55.135Z,26.80
2023-10-19T00:52:12.598Z,25.48
2023-10-19T00:52:25.865Z,23.77
2023-10-19T00:52:45.191Z,24.60
2023-10-19T00:52:59.250Z,24.98
2023-10-19T00:53:13.950Z,25.20
2023-10-19T00:53:27.868Z,24.00
2023-10-19T00:53:40.848Z,22.25
2023-10-19T00:53:55.364Z,21.80
2023-10-19T00:54:12.012Z,25.27
2023-10-19T00:54:36.830Z,31.73
2023-10-19T00:54:59.921Z,37.88
2023-10-19T00:55:16.048Z,36.38
2023-10-19T00:55:30.008Z,36.80
2023-10-19T00:55:43.287Z,33.67
2023-10-19T00:55:56.714Z,28.38
2023-10-19T00:56:10.598Z,26.32
2023-10-19T00:56:27.047Z,25.55
2023-10-19T00:56:45.768Z,22.30
2023-10-19T00:57:03.468Z,22.15
2023-10-19T00:57:21.467Z,19.98
2023-10-19T00:57:35.249Z,18.88
2023-10-19T00:57:50.341Z,20.42
2023-10-19T00:58:10.789Z,19.67
2023-10-19T00:58:30.331Z,18.65
2023-10-19T00:58:48.984Z,18.52
2023-10-19T00:59:13.676Z,19.05
2023-10-19T00:59:31.079Z,20.38
2023-10-19T00:59:44.801Z,19.75
2023-10-19T01:00:12.493Z,19.63
2023-10-19T01:00:32.898Z,18.45
2023-10-19T01:00:45.938Z,19.38
2023-10-19T01:01:01.022Z,18.67
2023-10-19T01:01:14.374Z,18.35
2023-10-19T01:01:30.440Z,18.15
2023-10-19T01:01:45.720Z,19.45
2023-10-19T01:02:05.916Z,20.48
2023-10-19T01:02:18.937Z,21.33
2023-10-19T01:02:32.862Z,21.40
2023-10-19T01:02:46.800Z,20.70
2023-10-19T01:03:01.655Z,20.65
2023-10-19T01:03:18.322Z,20.73
2023-10-19T01:03:36.606Z,19.58
2023-10-19T01:03:53.664Z,22.70
2023-10-19T01:04:06.535Z,24.30
2023-10-19T01:04:21.963Z,24.17
2023-10-19T01:04:35.941Z,23.27
2023-10-19T01:04:52.253Z,20.73
2023-10-19T01:05:07.683Z,22.05
2023-10-19T01:05:23.021Z,21.83
2023-10-19T01:05:37.371Z,20.60
2023-10-19T01:05:51.438Z,20.83
2023-10-19T01:06:10.772Z,21.92
2023-10-19T01:06:23.645Z,21.45
2023-10-19T01:06:37.011Z,20.98
2023-10-19T01:07:01.997Z,21.77
2023-10-19T01:07:17.040Z,21.58
2023-10-19T01:07:31.456Z,21.33
2023-10-19T01:07:46.158Z,20.95
2023-10-19T01:08:03.463Z,20.17
2023-10-19T01:08:24.750Z,21.27
2023-10-19T01:08:46.243Z,22.13
2023-10-19T01:08:59.062Z,20.35
2023-10-19T01:09:15.911Z,19.75
2023-10-19T01:09:29.055Z,18.73
2023-10-19T01:09:45.163Z,18.95
2023-10-19T01:10:00.566Z,20.08
2023-10-19T01:10:13.974Z,20.95
2023-10-19T01:10:29.419Z,21.70
2023-10-19T01:10:43.658Z,21.25
2023-10-19T01:10:56.329Z,20.08
2023-10-19T01:11:12.088Z,20.27
2023-10-19T01:11:29.814Z,20.98
2023-10-19T01:11:46.937Z,20.92
2023-10-19T01:12:03.103Z,21.67
2023-10-19T01:12:26.353Z,26.75
2023-10-19T01:12:40.686Z,30.77
2023-10-19T01:12:53.866Z,25.63
2023-10-19T01:13:07.101Z,24.58
2023-10-19T01:13:19.891Z,26.40
2023-10-19T01:13:36.053Z,25.90
2023-10-19T01:13:52.757Z,23.42
2023-10-19T01:14:19.561Z,21.67
2023-10-19T01:14:33.672Z,22.40
2023-10-19T01:14:46.496Z,20.27
2023-10-19T01:15:08.617Z,20.50
2023-10-19T01:15:30.674Z,21.15
2023-10-19T01:15:43.446Z,21.27
2023-10-19T01:15:57.606Z,21.33
2023-10-19T01:16:17.210Z,21.60
2023-10-19T01:16:30.195Z,21.90
2023-10-19T01:16:43.132Z,22.52
2023-10-19T01:16:57.999Z,22.48
2023-10-19T01:17:12.719Z,22.25
2023-10-19T01:17:28.120Z,23.25
2023-10-19T01:17:45.006Z,23.33
2023-10-19T01:18:00.454Z,22.33
2023-10-19T01:18:15.652Z,24.10
2023-10-19T01:18:30.658Z,24.88
2023-10-19T01:18:44.411Z,25.08
2023-10-19T01:18:56.978Z,24.27
2023-10-19T01:19:09.571Z,24.50
2023-10-19T01:19:22.161Z,24.02
2023-10-19T01:19:35.321Z,24.13
2023-10-19T01:19:48.018Z,26.13
2023-10-19T01:20:00.750Z,26.90
2023-10-19T01:20:21.166Z,27.00
2023-10-19T01:20:49.300Z,27.25
2023-10-19T01:21:05.219Z,25.85
2023-10-19T01:21:22.271Z,27.05
2023-10-19T01:21:38.817Z,26.80
2023-10-19T01:21:53.476Z,25.85
2023-10-19T01:22:07.727Z,26.27
2023-10-19T01:22:20.364Z,25.77
2023-10-19T01:22:33.109Z,26.00
2023-10-19T01:22:51.362Z,25.08
2023-10-19T01:23:16.105Z,27.42
2023-10-19T01:23:29.121Z,25.17
2023-10-19T01:23:42.378Z,23.45
2023-10-19T01:23:56.204Z,24.55
2023-10-19T01:24:09.600Z,24.17
2023-10-19T01:24:33.199Z,24.63
2023-10-19T01:24:45.792Z,25.50
2023-10-19T01:24:58.403Z,28.33
2023-10-19T01:25:11.878Z,31.42
2023-10-19T01:25:35.154Z,30.33
2023-10-19T01:25:51.721Z,31.17
2023-10-19T01:26:09.125Z,33.05
2023-10-19T01:26:23.413Z,32.78
2023-10-19T01:26:38.947Z,30.88
2023-10-19T01:26:54.909Z,29.05
2023-10-19T01:27:10.074Z,27.58
2023-10-19T01:27:23.452Z,26.75
2023-10-19T01:27:36.252Z,27.25
2023-10-19T01:27:48.894Z,28.30
2023-10-19T01:28:08.422Z,29.33
2023-10-19T01:28:26.632Z,29.40
2023-10-19T01:28:49.180Z,28.50
2023-10-19T01:29:02.770Z,32.05
2023-10-19T01:29:16.112Z,36.88
2023-10-19T01:29:28.751Z,43.45
2023-10-19T01:29:42.245Z,49.38
2023-10-19T01:29:54.967Z,59.42
2023-10-19T01:30:10.458Z,60.65
2023-10-19T01:30:24.258Z,61.85
2023-10-19T01:30:37.520Z,66.95
2023-10-19T01:30:53.070Z,78.50
2023-10-19T01:31:09.800Z,83.78
2023-10-19T01:31:32.262Z,106.05
2023-10-19T01:31:57.623Z,111.38
2023-10-19T01:32:10.634Z,107.20
2023-10-19T01:32:24.378Z,108.47
2023-10-19T01:32:37.105Z,108.68
2023-10-19T01:32:49.792Z,108.13
2023-10-19T01:33:04.055Z,103.07
2023-10-19T01:33:17.031Z,97.93
2023-10-19T01:33:32.126Z,96.53
2023-10-19T01:33:45.559Z,90.32
2023-10-19T01:34:00.444Z,88.32
2023-10-19T01:34:13.266Z,91.53
2023-10-19T01:34:28.039Z,88.00
2023-10-19T01:34:40.608Z,77.47
2023-10-19T01:34:53.321Z,74.63
2023-10-19T01:35:06.428Z,78.05
2023-10-19T01:35:19.370Z,78.63
2023-10-19T01:35:52.661Z,82.53
2023-10-19T01:36:26.642Z,82.85
2023-10-19T01:36:43.495Z,60.30
2023-10-19T01:36:57.248Z,52.08
2023-10-19T01:37:13.267Z,45.72
2023-10-19T01:37:25.995Z,40.40
2023-10-19T01:37:39.404Z,40.85
2023-10-19T01:37:53.659Z,41.03
2023-10-19T01:38:07.839Z,37.05
2023-10-19T01:38:20.400Z,34.70
2023-10-19T01:38:33.924Z,34.58
2023-10-19T01:38:48.681Z,34.80
2023-10-19T01:39:02.479Z,34.22
2023-10-19T01:39:15.502Z,31.88
2023-10-19T01:39:29.083Z,29.98
2023-10-19T01:39:46.554Z,30.75
2023-10-19T01:39:59.134Z,31.75
2023-10-19T01:40:16.511Z,32.03
2023-10-19T01:40:33.805Z,31.63
2023-10-19T01:40:47.686Z,30.60
2023-10-19T01:41:00.602Z,31.13
2023-10-19T01:41:17.058Z,32.05
2023-10-19T01:41:32.100Z,31.95
2023-10-19T01:41:45.621Z,32.33
2023-10-19T01:41:58.667Z,31.73
2023-10-19T01:42:11.578Z,31.05
2023-10-19T01:42:24.377Z,31.38
2023-10-19T01:42:36.999Z,32.40
2023-10-19T01:42:51.112Z,31.38
2023-10-19T01:43:04.686Z,31.33
2023-10-19T01:43:22.690Z,31.85
2023-10-19T01:43:35.589Z,33.22
2023-10-19T01:43:51.603Z,31.70
2023-10-19T01:44:06.052Z,30.45
2023-10-19T01:44:21.988Z,32.80
2023-10-19T01:44:37.419Z,32.72
2023-10-19T01:44:50.086Z,32.35
2023-10-19T01:45:02.654Z,36.50
2023-10-19T01:45:15.482Z,40.17
2023-10-19T01:45:28.091Z,41.58
2023-10-19T01:45:40.722Z,40.47
2023-10-19T01:45:55.619Z,37.88
2023-10-19T01:46:14.071Z,40.33
2023-10-19T01:46:26.917Z,38.15
2023-10-19T01:46:40.500Z,36.33
2023-10-19T01:46:53.364Z,38.95
2023-10-19T01:47:07.317Z,39.50
2023-10-19T01:47:21.595Z,37.28
2023-10-19T01:47:34.366Z,35.08
2023-10-19T01:47:47.097Z,37.45
2023-10-19T01:48:01.344Z,37.85
2023-10-19T01:48:14.282Z,37.45
2023-10-19T01:48:33.158Z,37.00
2023-10-19T01:48:45.817Z,35.17
2023-10-19T01:48:59.714Z,36.05
2023-10-19T01:49:12.590Z,33.67
2023-10-19T01:49:27.631Z,30.70
2023-10-19T01:49:40.767Z,30.55
2023-10-19T01:49:53.561Z,33.60
2023-10-19T01:50:07.415Z,35.60
2023-10-19T01:50:21.178Z,32.85
2023-10-19T01:50:33.950Z,33.58
2023-10-19T01:50:46.679Z,33.63
2023-10-19T01:51:00.362Z,33.97
2023-10-19T01:51:14.590Z,31.98
2023-10-19T01:51:29.752Z,32.40
2023-10-19T01:51:45.291Z,33.88
2023-10-19T01:51:57.972Z,35.72
2023-10-19T01:52:11.555Z,35.45
2023-10-19T01:52:26.067Z,33.85
2023-10-19T01:52:39.251Z,34.60
2023-10-19T01:52:53.304Z,34.30
2023-10-19T01:53:13.915Z,33.22
2023-10-19T01:53:26.823Z,38.20
2023-10-19T01:53:41.141Z,38.97
2023-10-19T01:53:56.629Z,40.58
2023-10-19T01:54:10.796Z,41.60
2023-10-19T01:54:24.850Z,39.67
2023-10-19T01:54:39.126Z,39.75
2023-10-19T01:55:00.185Z,41.50
2023-10-19T01:55:13.690Z,40.67
2023-10-19T01:55:27.426Z,38.05
2023-10-19T01:55:40.118Z,36.33
2023-10-19T01:55:59.000Z,35.67
2023-10-19T01:56:14.046Z,33.60
2023-10-19T01:56:26.816Z,35.15
2023-10-19T01:56:40.193Z,36.92
2023-10-19T01:56:55.928Z,36.03
2023-10-19T01:57:09.697Z,36.03
2023-10-19T01:57:22.827Z,35.40
2023-10-19T01:57:35.845Z,34.30
2023-10-19T01:57:48.496Z,33.10
2023-10-19T01:58:01.139Z,30.00
2023-10-19T01:58:15.649Z,30.15
2023-10-19T01:58:28.503Z,30.23
2023-10-19T01:58:42.468Z,28.92
2023-10-19T01:58:56.308Z,28.85
2023-10-19T01:59:10.387Z,30.55
2023-10-19T01:59:24.559Z,29.58
2023-10-19T01:59:37.185Z,29.17
2023-10-19T01:59:50.491Z,29.20
2023-10-19T02:00:11.362Z,29.45
2023-10-19T02:00:24.232Z,28.77
2023-10-19T02:00:38.358Z,27.33
2023-10-19T02:00:51.180Z,28.27
2023-10-19T02:01:09.349Z,28.20
2023-10-19T02:01:30.286Z,28.73
2023-10-19T02:01:46.490Z,27.50
2023-10-19T02:02:00.537Z,27.60
2023-10-19T02:02:13.350Z,27.67
2023-10-19T02:02:26.254Z,28.17
2023-10-19T02:02:39.663Z,27.83
2023-10-19T02:02:52.516Z,29.35
2023-10-19T02:03:08.807Z,31.35
2023-10-19T02:03:23.841Z,30.02
2023-10-19T02:03:37.949Z,28.35
2023-10-19T02:03:56.057Z,28.13
2023-10-19T02:04:10.323Z,28.63
2023-10-19T02:04:23.285Z,28.23
2023-10-19T02:04:36.831Z,27.20
2023-10-19T02:04:52.386Z,29.55
2023-10-19T02:05:09.867Z,28.25
2023-10-19T02:05:23.347Z,25.77
2023-10-19T02:05:40.801Z,28.23
2023-10-19T02:06:00.326Z,29.05
2023-10-19T02:06:18.113Z,28.80
2023-10-19T02:06:36.886Z,30.02
2023-10-19T02:06:50.152Z,32.33
2023-10-19T02:07:02.830Z,31.70
2023-10-19T02:07:19.359Z,30.70
2023-10-19T02:07:32.176Z,31.02
2023-10-19T02:07:45.003Z,29.48
2023-10-19T02:07:59.162Z,28.95
2023-10-19T02:08:11.777Z,29.05
2023-10-19T02:08:26.844Z,27.77
2023-10-19T02:08:39.921Z,27.83
2023-10-19T02:08:57.967Z,27.52
2023-10-19T02:09:18.857Z,29.52
2023-10-19T02:09:35.087Z,28.80
2023-10-19T02:09:48.017Z,28.88
2023-10-19T02:10:01.012Z,28.50
2023-10-19T02:10:13.641Z,28.60
2023-10-19T02:10:28.425Z,28.98
2023-10-19T02:10:43.275Z,29.27
2023-10-19T02:10:55.961Z,29.77
2023-10-19T02:11:17.635Z,28.95
2023-10-19T02:11:30.641Z,28.50
2023-10-19T02:11:46.833Z,29.90
2023-10-19T02:11:59.967Z,28.02
2023-10-19T02:12:13.259Z,28.67
2023-10-19T02:12:25.884Z,29.33
2023-10-19T02:12:40.266Z,28.92
2023-10-19T02:12:56.418Z,28.25
2023-10-19T02:13:12.089Z,27.50
2023-10-19T02:13:24.783Z,28.23
2023-10-19T02:13:40.848Z,29.35
2023-10-19T02:13:55.596Z,27.88
2023-10-19T02:14:15.250Z,27.65
2023-10-19T02:14:30.489Z,29.95
2023-10-19T02:14:44.668Z,29.35
2023-10-19T02:14:57.270Z,27.00
2023-10-19T02:15:10.218Z,26.15
2023-10-19T02:15:23.341Z,27.65
2023-10-19T02:15:36.206Z,28.42
2023-10-19T02:15:50.498Z,28.38
2023-10-19T02:16:03.275Z,28.95
2023-10-19T02:16:17.056Z,28.90
2023-10-19T02:16:30.779Z,29.70
2023-10-19T02:16:44.663Z,29.45
2023-10-19T02:17:00.330Z,29.42
2023-10-19T02:17:16.367Z,29.27
2023-10-19T02:17:29.165Z,29.15
2023-10-19T02:17:42.478Z,29.92
2023-10-19T02:17:57.098Z,31.13
2023-10-19T02:18:10.271Z,29.27
2023-10-19T02:18:23.036Z,27.50
2023-10-19T02:18:36.009Z,28.27
2023-10-19T02:18:49.284Z,30.63
2023-10-19T02:19:02.595Z,32.28
2023-10-19T02:19:15.889Z,32.13
2023-10-19T02:19:30.454Z,31.15
2023-10-19T02:19:45.191Z,30.48
2023-10-19T02:19:58.278Z,30.50
2023-10-19T02:20:20.948Z,31.05
2023-10-19T02:20:41.458Z,33.67
2023-10-19T02:20:54.269Z,33.38
2023-10-19T02:21:07.505Z,30.83
2023-10-19T02:21:23.535Z,30.98
2023-10-19T02:21:40.960Z,32.90
2023-10-19T02:21:55.197Z,33.15
2023-10-19T02:22:09.791Z,31.85
2023-10-19T02:22:22.796Z,32.28
2023-10-19T02:22:36.869Z,33.00
2023-10-19T02:22:50.478Z,32.88
2023-10-19T02:23:05.115Z,31.95
2023-10-19T02:23:17.734Z,33.55
2023-10-19T02:23:30.350Z,35.85
2023-10-19T02:23:43.050Z,35.00
2023-10-19T02:23:55.657Z,34.38
2023-10-19T02:24:09.370Z,34.15
2023-10-19T02:24:22.016Z,33.53
2023-10-19T02:24:34.846Z,33.72
2023-10-19T02:24:47.531Z,33.50
2023-10-19T02:25:00.230Z,30.50
2023-10-19T02:25:14.596Z,29.80
2023-10-19T02:25:31.795Z,31.58
2023-10-19T02:25:44.604Z,32.35
2023-10-19T02:25:57.607Z,33.53
2023-10-19T02:26:10.740Z,34.70
2023-10-19T02:26:24.209Z,33.42
2023-10-19T02:26:38.715Z,31.83
2023-10-19T02:26:55.735Z,31.38
2023-10-19T02:27:11.417Z,32.30
2023-10-19T02:27:32.745Z,33.15
2023-10-19T02:27:46.462Z,32.75
2023-10-19T02:27:59.088Z,33.92
2023-10-19T02:28:12.950Z,34.88
2023-10-19T02:28:32.404Z,34.78
2023-10-19T02:28:45.509Z,33.13
2023-10-19T02:28:59.474Z,33.25
2023-10-19T02:29:13.667Z,33.28
2023-10-19T02:29:27.156Z,32.30
2023-10-19T02:29:39.975Z,32.90
2023-10-19T02:29:52.885Z,31.42
2023-10-19T02:30:06.622Z,31.75
2023-10-19T02:30:19.275Z,32.95
2023-10-19T02:30:32.116Z,32.95
2023-10-19T02:30:45.666Z,33.45
2023-10-19T02:30:58.790Z,32.97
2023-10-19T02:31:21.981Z,32.33
2023-10-19T02:31:35.250Z,34.13
2023-10-19T02:31:49.304Z,35.35
2023-10-19T02:32:06.656Z,36.42
2023-10-19T02:32:20.290Z,34.78
2023-10-19T02:32:34.523Z,34.15
2023-10-19T02:32:48.851Z,34.10
2023-10-19T02:33:02.163Z,31.88
2023-10-19T02:33:14.847Z,31.02
2023-10-19T02:33:27.783Z,32.35
2023-10-19T02:33:40.402Z,34.40
2023-10-19T02:33:59.931Z,35.13
2023-10-19T02:34:16.353Z,33.63
2023-10-19T02:34:29.374Z,36.50
2023-10-19T02:34:42.442Z,35.97
2023-10-19T02:34:55.269Z,32.58
2023-10-19T02:35:08.490Z,31.45
2023-10-19T02:35:21.134Z,33.53
2023-10-19T02:35:36.109Z,34.97
2023-10-19T02:35:49.183Z,36.97
2023-10-19T02:36:02.224Z,37.80
2023-10-19T02:36:17.234Z,36.47
2023-10-19T02:36:31.642Z,35.13
2023-10-19T02:36:45.882Z,33.28
2023-10-19T02:36:58.513Z,33.97
2023-10-19T02:37:11.183Z,37.05
2023-10-19T02:37:26.401Z,37.70
2023-10-19T02:37:39.961Z,35.40
2023-10-19T02:37:52.679Z,36.03
2023-10-19T02:38:06.763Z,36.33
2023-10-19T02:38:19.387Z,34.55
2023-10-19T02:38:34.371Z,35.22
2023-10-19T02:38:49.842Z,34.88
2023-10-19T02:39:08.629Z,34.95
2023-10-19T02:39:22.894Z,36.67
2023-10-19T02:39:35.555Z,35.60
2023-10-19T02:39:48.181Z,36.15
2023-10-19T02:40:01.760Z,37.38
2023-10-19T02:40:20.727Z,37.33
2023-10-19T02:40:33.523Z,35.58
2023-10-19T02:40:47.721Z,34.38
2023-10-19T02:41:01.767Z,33.60
2023-10-19T02:41:14.411Z,35.50
2023-10-19T02:41:28.204Z,36.38
2023-10-19T02:41:43.088Z,37.17
2023-10-19T02:41:56.002Z,41.90
2023-10-19T02:42:09.295Z,41.13
2023-10-19T02:42:23.416Z,39.00
2023-10-19T02:42:36.207Z,38.40
2023-10-19T02:42:48.848Z,39.28
2023-10-19T02:43:04.054Z,40.40
2023-10-19T02:43:16.737Z,38.83
2023-10-19T02:43:30.993Z,37.35
2023-10-19T02:43:46.916Z,38.45
2023-10-19T02:44:03.454Z,40.85
2023-10-19T02:44:23.444Z,38.72
2023-10-19T02:44:36.228Z,37.33
2023-10-19T02:44:51.694Z,37.05
2023-10-19T02:45:06.247Z,38.28
2023-10-19T02:45:19.557Z,39.97
2023-10-19T02:45:32.604Z,38.88
2023-10-19T02:45:49.017Z,37.42
2023-10-19T02:46:03.635Z,37.53
2023-10-19T02:46:18.643Z,38.25
2023-10-19T02:46:33.168Z,39.25
2023-10-19T02:46:46.362Z,39.92
2023-10-19T02:47:00.208Z,39.20
2023-10-19T02:47:13.554Z,37.80
2023-10-19T02:47:30.118Z,35.67
2023-10-19T02:47:45.944Z,35.95
2023-10-19T02:47:59.901Z,35.47
2023-10-19T02:48:14.257Z,36.15
2023-10-19T02:48:26.911Z,36.92
2023-10-19T02:48:39.600Z,36.65
2023-10-19T02:48:52.242Z,38.50
2023-10-19T02:49:10.614Z,37.35
2023-10-19T02:49:23.917Z,34.58
2023-10-19T02:49:40.033Z,34.13
2023-10-19T02:49:56.968Z,35.97
2023-10-19T02:50:14.332Z,35.35
2023-10-19T02:50:27.645Z,33.30
2023-10-19T02:50:40.374Z,34.03
2023-10-19T02:50:54.056Z,36.97
2023-10-19T02:51:12.098Z,37.80
2023-10-19T02:51:24.849Z,35.38
2023-10-19T02:51:38.287Z,35.05
2023-10-19T02:51:53.385Z,36.08
2023-10-19T02:52:06.610Z,37.47
2023-10-19T02:52:19.539Z,35.75
2023-10-19T02:52:32.479Z,34.53
2023-10-19T02:52:45.215Z,34.30
2023-10-19T02:52:57.938Z,33.55
2023-10-19T02:53:14.752Z,34.38
2023-10-19T02:53:29.263Z,35.67
2023-10-19T02:53:42.032Z,36.45
2023-10-19T02:53:54.860Z,36.72
2023-10-19T02:54:08.788Z,36.72
2023-10-19T02:54:24.001Z,37.55
2023-10-19T02:54:37.289Z,35.95
2023-10-19T02:54:50.053Z,34.60
2023-10-19T02:55:05.637Z,33.65
2023-10-19T02:55:18.260Z,36.85
2023-10-19T02:55:30.990Z,36.63
2023-10-19T02:55:43.773Z,34.33
2023-10-19T02:56:00.988Z,34.65
2023-10-19T02:56:17.477Z,36.30
2023-10-19T02:56:31.184Z,34.70
2023-10-19T02:56:44.305Z,33.95
2023-10-19T02:56:58.103Z,33.95
2023-10-19T02:57:13.442Z,35.30
2023-10-19T02:57:26.492Z,36.65
2023-10-19T02:57:39.275Z,34.92
2023-10-19T02:57:51.990Z,32.42
2023-10-19T02:58:06.414Z,32.13
2023-10-19T02:58:19.042Z,31.40
2023-10-19T02:58:31.672Z,34.38
2023-10-19T02:58:50.069Z,35.17
2023-10-19T02:59:05.033Z,33.60
2023-10-19T02:59:18.549Z,31.50
2023-10-19T02:59:31.205Z,32.80
2023-10-19T02:59:43.798Z,35.40
2023-10-19T02:59:56.660Z,35.15
2023-10-19T03:00:13.141Z,34.38
2023-10-19T03:00:33.729Z,34.05
2023-10-19T03:00:47.225Z,34.65
2023-10-19T03:01:01.584Z,35.80
2023-10-19T03:01:18.494Z,35.65
2023-10-19T03:01:33.034Z,34.28
2023-10-19T03:01:46.073Z,35.97
2023-10-19T03:02:03.298Z,36.60
2023-10-19T03:02:18.676Z,35.78
2023-10-19T03:02:31.807Z,34.47
2023-10-19T03:02:44.703Z,35.20
2023-10-19T03:02:57.583Z,36.10
2023-10-19T03:03:10.316Z,35.50
2023-10-19T03:03:23.157Z,35.47
2023-10-19T03:03:35.802Z,35.17
2023-10-19T03:03:52.090Z,35.55
2023-10-19T03:04:05.916Z,36.03
2023-10-19T03:04:19.103Z,36.63
2023-10-19T03:04:32.070Z,37.10
2023-10-19T03:04:46.514Z,38.03
2023-10-19T03:04:59.793Z,36.47
2023-10-19T03:05:15.573Z,34.58
2023-10-19T03:05:28.936Z,35.80
2023-10-19T03:05:44.327Z,35.47
2023-10-19T03:06:00.994Z,31.73
2023-10-19T03:06:13.751Z,32.60
2023-10-19T03:06:26.882Z,35.25
2023-10-19T03:06:41.795Z,35.25
2023-10-19T03:06:54.439Z,34.08
2023-10-19T03:07:08.502Z,34.92
2023-10-19T03:07:21.462Z,38.15
2023-10-19T03:07:34.141Z,37.25
2023-10-19T03:07:46.852Z,37.15
2023-10-19T03:07:59.676Z,36.90
2023-10-19T03:08:16.976Z,36.38
2023-10-19T03:08:30.263Z,37.78
2023-10-19T03:08:42.855Z,37.00
2023-10-19T03:08:58.981Z,34.53
2023-10-19T03:09:17.049Z,35.53
2023-10-19T03:09:31.134Z,35.70
2023-10-19T03:09:50.233Z,35.75
2023-10-19T03:10:03.704Z,37.17
2023-10-19T03:10:24.141Z,37.22
2023-10-19T03:10:43.434Z,36.47
2023-10-19T03:11:05.023Z,37.80
2023-10-19T03:11:18.245Z,38.65
2023-10-19T03:11:30.905Z,39.80
2023-10-19T03:11:45.616Z,39.47
2023-10-19T03:12:01.207Z,39.55
2023-10-19T03:12:15.171Z,40.38
2023-10-19T03:12:28.049Z,39.58
2023-10-19T03:12:41.938Z,39.35
2023-10-19T03:12:54.572Z,39.42
2023-10-19T03:13:07.236Z,38.78
2023-10-19T03:13:20.615Z,37.33
2023-10-19T03:13:34.068Z,37.05
2023-10-19T03:13:51.283Z,38.40
2023-10-19T03:14:06.395Z,39.20
2023-10-19T03:14:19.224Z,39.50
2023-10-19T03:14:32.851Z,39.42
2023-10-19T03:14:48.781Z,40.05
2023-10-19T03:15:01.802Z,39.97
2023-10-19T03:15:15.652Z,37.40
2023-10-19T03:15:31.441Z,37.42
2023-10-19T03:15:46.812Z,38.50